Time;durP1;ratioP1;P1;durP2;ratioP2;P2;SDS_P1;SDS_P2;PMS_P1;PMS_P2;Temp;Humidity;BMP_temperature;BMP_pressure;BME280_temperature;BME280_humidity;BME280_pressure;Samples;Min_cycle;Max_cycle;Signal;HPM_P1;HPM_P2
2021/01/01 00:00:49;;;;;;;28.95;7.13;;;16.70;52.90;;;;;;5039178;28;20103;-76
2021/01/01 00:03:16;;;;;;;24.88;6.35;;;16.60;53.00;;;;;;5044178;28;20032;-76
2021/01/01 00:05:46;;;;;;;26.20;6.50;;;16.80;53.00;;;;;;5036111;28;20040;-77
2021/01/01 00:08:12;;;;;;;20.00;5.03;;;16.90;52.40;;;;;;5038193;28;20028;-76
2021/01/01 00:10:39;;;;;;;18.70;4.45;;;16.60;52.90;;;;;;5037830;28;20053;-76
2021/01/01 00:13:05;;;;;;;28.75;6.18;;;16.40;53.30;;;;;;5041577;28;20029;-75
2021/01/01 00:15:32;;;;;;;22.00;6.75;;;16.40;53.40;;;;;;5038414;28;20088;-75
2021/01/01 00:17:58;;;;;;;17.10;5.20;;;16.30;53.70;;;;;;5036770;28;20035;-76
2021/01/01 00:20:24;;;;;;;30.02;5.97;;;16.40;53.40;;;;;;5042632;28;20071;-76
2021/01/01 00:22:51;;;;;;;31.63;6.07;;;16.40;53.30;;;;;;5035796;28;20033;-75
2021/01/01 00:25:17;;;;;;;26.13;5.63;;;16.50;53.00;;;;;;5038343;28;20029;-74
2021/01/01 00:27:44;;;;;;;30.33;7.55;;;16.40;53.40;;;;;;5045326;28;20028;-76
2021/01/01 00:30:11;;;;;;;24.52;5.82;;;16.50;53.00;;;;;;5038390;28;20117;-76
2021/01/01 00:32:41;;;;;;;20.40;4.88;;;16.40;53.00;;;;;;5036466;28;20030;-75
2021/01/01 00:35:08;;;;;;;28.65;6.55;;;16.30;53.30;;;;;;5038442;28;20033;-76
2021/01/01 00:37:36;;;;;;;30.02;6.68;;;16.20;53.30;;;;;;5036129;28;20131;-76
2021/01/01 00:40:07;;;;;;;22.42;5.32;;;16.20;53.20;;;;;;5037115;28;20124;-76
2021/01/01 00:42:37;;;;;;;26.00;5.68;;;16.20;53.50;;;;;;5036503;28;20029;-75
2021/01/01 00:45:07;;;;;;;21.80;6.70;;;16.00;53.90;;;;;;5035286;28;20083;-72
2021/01/01 00:47:34;;;;;;;30.10;7.32;;;16.00;54.00;;;;;;5037393;28;20051;-75
2021/01/01 00:50:00;;;;;;;18.50;5.93;;;15.90;54.00;;;;;;5040459;28;20167;-75
2021/01/01 00:52:27;;;;;;;22.77;5.97;;;15.80;54.00;;;;;;5037955;28;20044;-77
2021/01/01 00:54:53;;;;;;;34.13;6.82;;;15.80;54.10;;;;;;5031044;28;20025;-77
2021/01/01 00:57:20;;;;;;;27.23;8.30;;;15.70;54.30;;;;;;5031159;28;20484;-78
2021/01/01 00:59:46;;;;;;;35.67;8.43;;;15.70;53.60;;;;;;5032663;28;20036;-78
2021/01/01 01:02:12;;;;;;;26.63;5.35;;;15.60;54.50;;;;;;5028376;28;20026;-79
2021/01/01 01:04:42;;;;;;;33.05;7.30;;;15.50;54.70;;;;;;5042293;28;20017;-78
2021/01/01 01:07:09;;;;;;;15.88;5.15;;;15.40;55.10;;;;;;5037047;28;20447;-78
2021/01/01 01:09:38;;;;;;;25.48;6.93;;;15.30;54.90;;;;;;5027846;28;20116;-77
2021/01/01 01:12:05;;;;;;;25.30;5.78;;;15.10;55.60;;;;;;5024662;28;20033;-75
2021/01/01 01:14:32;;;;;;;26.63;6.80;;;15.10;54.90;;;;;;5039235;28;20125;-75
2021/01/01 01:17:00;;;;;;;31.40;7.82;;;15.10;55.00;;;;;;5036253;28;20473;-75
2021/01/01 01:19:26;;;;;;;28.02;6.32;;;15.00;54.10;;;;;;5036474;28;20037;-76
2021/01/01 01:21:55;;;;;;;29.83;7.97;;;15.00;55.20;;;;;;5028977;28;20105;-76
2021/01/01 01:24:22;;;;;;;28.48;6.70;;;14.90;54.50;;;;;;5030593;28;20021;-76
2021/01/01 01:26:48;;;;;;;23.92;6.65;;;14.80;55.50;;;;;;5029853;28;20014;-75
2021/01/01 01:29:14;;;;;;;15.48;4.97;;;14.60;56.60;;;;;;5028511;28;20120;-75
2021/01/01 01:31:41;;;;;;;23.10;6.95;;;14.50;56.20;;;;;;5034928;28;20021;-76
2021/01/01 01:34:07;;;;;;;28.30;6.57;;;14.60;55.40;;;;;;5032596;28;20415;-76
2021/01/01 01:36:34;;;;;;;28.88;7.40;;;14.50;55.70;;;;;;5038982;28;20029;-75
2021/01/01 01:39:00;;;;;;;30.00;7.13;;;14.50;55.70;;;;;;5034755;28;20060;-76
2021/01/01 01:41:26;;;;;;;28.65;7.50;;;14.40;56.10;;;;;;5032902;28;20036;-76
2021/01/01 01:43:53;;;;;;;30.75;8.18;;;14.40;54.40;;;;;;5027056;28;20105;-75
2021/01/01 01:46:20;;;;;;;23.67;7.40;;;14.50;55.10;;;;;;5035999;28;20022;-75
2021/01/01 01:48:47;;;;;;;26.40;5.50;;;14.60;54.90;;;;;;5034518;28;20033;-75
2021/01/01 01:51:13;;;;;;;24.02;7.68;;;14.40;54.80;;;;;;5032441;28;20033;-75
2021/01/01 01:53:45;;;;;;;35.58;6.88;;;14.20;54.90;;;;;;5034413;28;20451;-75
2021/01/01 01:56:12;;;;;;;22.38;6.47;;;14.10;55.80;;;;;;5049273;28;20405;-75
2021/01/01 01:58:40;;;;;;;27.23;7.35;;;14.00;55.60;;;;;;5042841;28;20067;-75
2021/01/01 02:01:07;;;;;;;22.48;7.20;;;13.90;55.40;;;;;;5049095;28;20360;-75
2021/01/01 02:03:34;;;;;;;34.08;8.23;;;14.00;56.20;;;;;;5016580;28;20022;-75
2021/01/01 02:06:01;;;;;;;35.47;8.68;;;13.90;55.80;;;;;;5039913;28;20068;-75
2021/01/01 02:08:28;;;;;;;20.48;6.60;;;13.80;56.20;;;;;;5052932;28;20392;-75
2021/01/01 02:10:59;;;;;;;27.08;7.25;;;13.70;56.60;;;;;;5036855;28;20108;-76
2021/01/01 02:13:26;;;;;;;20.40;6.28;;;13.70;56.70;;;;;;5026210;28;20477;-75
2021/01/01 02:15:53;;;;;;;29.23;8.10;;;13.60;56.60;;;;;;5019795;28;20109;-75
2021/01/01 02:18:51;;;;;;;32.20;10.02;;;13.50;57.30;;;;;;5025391;28;20032;-75
2021/01/01 02:21:20;;;;;;;30.27;7.90;;;13.50;57.50;;;;;;5002912;28;20038;-77
2021/01/01 02:23:47;;;;;;;29.92;6.68;;;13.60;58.10;;;;;;5034564;28;20026;-76
2021/01/01 02:26:14;;;;;;;25.10;6.95;;;13.50;57.50;;;;;;5048804;28;20016;-75
2021/01/01 02:28:40;;;;;;;30.65;8.13;;;13.50;57.60;;;;;;5038318;28;20493;-76
2021/01/01 02:31:07;;;;;;;26.33;7.18;;;13.40;57.90;;;;;;5029870;28;20025;-75
2021/01/01 02:33:34;;;;;;;28.60;7.28;;;13.50;58.10;;;;;;5036292;28;20048;-75
2021/01/01 02:36:00;;;;;;;31.70;7.18;;;13.50;58.10;;;;;;5035172;28;20033;-75
2021/01/01 02:38:27;;;;;;;26.30;6.95;;;13.40;57.90;;;;;;5034676;28;20456;-75
2021/01/01 02:40:53;;;;;;;35.25;7.93;;;13.40;58.60;;;;;;5041298;28;20223;-75
2021/01/01 02:43:20;;;;;;;24.65;6.70;;;13.30;58.10;;;;;;5047179;28;20047;-75
2021/01/01 02:45:47;;;;;;;34.35;9.68;;;13.20;58.10;;;;;;5044960;28;20107;-75
2021/01/01 02:48:21;;;;;;;27.13;7.55;;;13.20;58.20;;;;;;5039881;28;20047;-76
2021/01/01 02:50:47;;;;;;;33.42;8.25;;;13.20;59.20;;;;;;5036221;28;20426;-74
2021/01/01 02:53:14;;;;;;;28.88;6.97;;;13.30;59.30;;;;;;5041609;28;20013;-74
2021/01/01 02:55:40;;;;;;;27.30;8.10;;;13.20;58.50;;;;;;5044702;28;20040;-75
2021/01/01 02:58:07;;;;;;;34.45;8.20;;;13.30;59.40;;;;;;5038430;28;20017;-75
2021/01/01 03:00:36;;;;;;;29.52;8.50;;;13.30;58.80;;;;;;5047429;28;20112;-74
2021/01/01 03:03:04;;;;;;;27.00;9.52;;;13.20;59.00;;;;;;5037854;28;20021;-75
2021/01/01 03:05:30;;;;;;;22.52;7.40;;;13.10;59.00;;;;;;5052031;28;20037;-74
2021/01/01 03:07:57;;;;;;;19.83;6.93;;;13.10;59.50;;;;;;5039683;28;20036;-74
2021/01/01 03:10:23;;;;;;;22.67;5.95;;;12.90;59.80;;;;;;5041535;28;20099;-74
2021/01/01 03:12:50;;;;;;;21.17;5.47;;;12.80;60.10;;;;;;5039188;28;20052;-77
2021/01/01 03:15:16;;;;;;;21.27;6.20;;;12.80;60.10;;;;;;5034290;28;20033;-73
2021/01/01 03:17:43;;;;;;;17.83;6.43;;;12.70;60.10;;;;;;5040307;28;20018;-76
2021/01/01 03:20:10;;;;;;;27.40;10.98;;;12.70;60.10;;;;;;5032821;28;20029;-75
2021/01/01 03:22:36;;;;;;;25.17;7.65;;;12.70;60.20;;;;;;5040192;28;20032;-74
2021/01/01 03:25:07;;;;;;;30.20;7.70;;;12.70;59.60;;;;;;5050082;28;20021;-76
2021/01/01 03:27:34;;;;;;;20.80;6.30;;;12.60;59.20;;;;;;5036218;28;20036;-74
2021/01/01 03:30:00;;;;;;;27.08;6.35;;;12.60;58.90;;;;;;5038339;28;20043;-74
2021/01/01 03:32:27;;;;;;;24.88;8.25;;;12.60;58.90;;;;;;5040748;28;20072;-74
2021/01/01 03:34:58;;;;;;;25.77;9.10;;;12.60;59.40;;;;;;5038393;28;20053;-74
2021/01/01 03:37:25;;;;;;;32.47;7.78;;;12.50;59.00;;;;;;5036122;28;20042;-75
2021/01/01 03:39:51;;;;;;;28.50;7.50;;;12.50;59.10;;;;;;5038476;28;20369;-75
2021/01/01 03:42:18;;;;;;;32.13;8.88;;;12.50;59.30;;;;;;5050556;28;20061;-74
2021/01/01 03:44:44;;;;;;;24.23;8.10;;;12.50;59.60;;;;;;5035632;28;20022;-75
2021/01/01 03:47:11;;;;;;;30.33;7.90;;;12.50;59.80;;;;;;5045827;28;20022;-75
2021/01/01 03:49:37;;;;;;;28.80;10.55;;;12.50;60.20;;;;;;5028191;28;20403;-75
2021/01/01 03:52:03;;;;;;;33.28;8.00;;;12.50;59.80;;;;;;5036688;28;20117;-74
2021/01/01 03:54:30;;;;;;;28.75;6.85;;;12.50;60.50;;;;;;5036058;28;20075;-76
2021/01/01 03:56:56;;;;;;;30.08;8.98;;;12.50;60.20;;;;;;5047275;28;20029;-75
2021/01/01 03:59:23;;;;;;;27.00;9.57;;;12.50;60.00;;;;;;5050816;28;20037;-75
2021/01/01 04:01:49;;;;;;;30.25;9.35;;;12.40;59.90;;;;;;5031831;28;20026;-74
2021/01/01 04:04:15;;;;;;;24.67;10.73;;;12.40;60.10;;;;;;5034512;28;20032;-73
2021/01/01 04:06:42;;;;;;;39.75;9.90;;;12.40;59.90;;;;;;5035625;28;20032;-74
2021/01/01 04:09:08;;;;;;;34.85;11.15;;;12.30;60.20;;;;;;5036102;28;20059;-73
2021/01/01 04:11:38;;;;;;;31.60;10.57;;;12.40;60.20;;;;;;5040585;28;20094;-75
2021/01/01 04:14:05;;;;;;;47.00;10.82;;;12.30;61.10;;;;;;5037068;28;20029;-73
2021/01/01 04:16:32;;;;;;;21.08;9.80;;;12.30;60.80;;;;;;5055993;28;20032;-74
2021/01/01 04:18:59;;;;;;;33.03;13.13;;;12.30;61.30;;;;;;5044619;28;20095;-74
2021/01/01 04:21:25;;;;;;;33.75;12.35;;;12.20;61.00;;;;;;5034454;28;20093;-73
2021/01/01 04:23:52;;;;;;;29.55;10.18;;;12.20;61.20;;;;;;5042828;28;20033;-73
2021/01/01 04:26:21;;;;;;;26.80;8.10;;;12.10;60.80;;;;;;5034147;28;20025;-73
2021/01/01 04:28:48;;;;;;;29.73;8.55;;;12.00;61.40;;;;;;5035741;28;20029;-71
2021/01/01 04:31:14;;;;;;;24.27;8.13;;;12.30;61.80;;;;;;5041329;28;20375;-71
2021/01/01 04:33:41;;;;;;;37.45;9.65;;;12.20;61.80;;;;;;5034630;28;20113;-76
2021/01/01 04:36:07;;;;;;;21.58;9.02;;;12.10;61.10;;;;;;5030516;28;20029;-72
2021/01/01 04:38:33;;;;;;;23.92;6.43;;;12.10;61.80;;;;;;5032214;28;20364;-73
2021/01/01 04:41:01;;;;;;;26.65;9.23;;;12.00;61.60;;;;;;5034705;28;20105;-74
2021/01/01 04:43:27;;;;;;;25.15;8.85;;;11.90;62.00;;;;;;5031543;28;20033;-73
2021/01/01 04:45:54;;;;;;;26.42;6.20;;;11.80;61.90;;;;;;5034785;28;20018;-73
2021/01/01 04:48:20;;;;;;;23.75;8.82;;;11.70;62.20;;;;;;5035012;28;20025;-74
2021/01/01 04:50:47;;;;;;;28.42;8.73;;;11.60;62.00;;;;;;5034925;28;20086;-75
2021/01/01 04:53:21;;;;;;;25.20;8.30;;;11.70;62.30;;;;;;5028344;28;20068;-73
2021/01/01 04:55:48;;;;;;;18.08;7.35;;;11.60;62.00;;;;;;5034341;28;20029;-73
2021/01/01 04:58:15;;;;;;;33.88;13.45;;;11.50;62.50;;;;;;5034236;28;20022;-73
2021/01/01 05:00:42;;;;;;;48.58;20.20;;;11.50;62.20;;;;;;5034922;28;20359;-73
2021/01/01 05:03:08;;;;;;;45.60;14.45;;;11.40;62.50;;;;;;5035362;28;20029;-73
2021/01/01 05:05:35;;;;;;;16.80;6.88;;;11.50;62.90;;;;;;5034394;28;20458;-72
2021/01/01 05:08:01;;;;;;;23.25;7.90;;;11.60;62.90;;;;;;5035000;28;20029;-72
2021/01/01 05:10:27;;;;;;;23.42;6.25;;;11.60;63.20;;;;;;5034218;28;20037;-72
2021/01/01 05:12:55;;;;;;;17.92;6.85;;;11.60;62.90;;;;;;5033939;28;20032;-74
2021/01/01 05:15:35;;;;;;;22.52;7.47;;;11.60;63.10;;;;;;5034431;28;20041;-74
2021/01/01 05:18:01;;;;;;;20.98;7.28;;;11.60;62.90;;;;;;5015917;28;20036;-73
2021/01/01 05:20:28;;;;;;;22.88;6.78;;;11.60;62.50;;;;;;5015483;28;20492;-75
2021/01/01 05:22:58;;;;;;;25.77;8.18;;;11.50;62.50;;;;;;5028737;28;20079;-74
2021/01/01 05:25:26;;;;;;;21.50;7.60;;;11.40;63.00;;;;;;5034741;28;20029;-73
2021/01/01 05:28:00;;;;;;;21.58;8.10;;;11.40;63.20;;;;;;5044614;28;20526;-74
2021/01/01 05:30:35;;;;;;;25.58;7.97;;;11.40;63.40;;;;;;5038979;28;20037;-77
2021/01/01 05:33:03;;;;;;;25.23;7.85;;;11.40;62.80;;;;;;5030205;28;20030;-75
2021/01/01 05:35:30;;;;;;;25.65;7.80;;;11.30;63.70;;;;;;5035547;28;20076;-74
2021/01/01 05:38:13;;;;;;;20.33;7.85;;;11.30;63.50;;;;;;5034525;28;20032;-75
2021/01/01 05:40:40;;;;;;;28.33;10.45;;;11.40;63.90;;;;;;5027110;28;20112;-74
2021/01/01 05:43:25;;;;;;;21.02;8.13;;;11.30;63.60;;;;;;5042264;28;20040;-75
2021/01/01 05:45:51;;;;;;;25.42;7.70;;;11.20;63.70;;;;;;5030255;28;20029;-74
2021/01/01 05:48:18;;;;;;;16.92;7.43;;;11.20;63.80;;;;;;5038270;28;20025;-75
2021/01/01 05:50:45;;;;;;;22.63;9.55;;;11.10;63.70;;;;;;5033754;28;20095;-73
2021/01/01 05:53:17;;;;;;;17.98;6.45;;;11.00;64.30;;;;;;5028891;28;20098;-74
2021/01/01 05:55:45;;;;;;;14.27;6.90;;;11.00;64.30;;;;;;5040039;28;20407;-75
2021/01/01 05:58:38;;;;;;;16.25;7.72;;;11.00;64.60;;;;;;5041264;28;20092;-75
2021/01/01 06:01:06;;;;;;;22.35;8.18;;;11.00;64.40;;;;;;5036283;28;20495;-75
2021/01/01 06:03:35;;;;;;;18.75;7.22;;;11.00;64.40;;;;;;5029045;28;20034;-75
2021/01/01 06:06:06;;;;;;;25.08;7.90;;;11.10;64.90;;;;;;5030173;28;20022;-75
2021/01/01 06:08:33;;;;;;;20.17;7.82;;;11.10;64.90;;;;;;5016817;28;20030;-73
2021/01/01 06:11:05;;;;;;;24.35;7.15;;;11.00;64.40;;;;;;5034024;28;20022;-74
2021/01/01 06:13:33;;;;;;;17.35;8.15;;;11.00;64.90;;;;;;5017373;28;20093;-74
2021/01/01 06:16:04;;;;;;;20.33;7.47;;;11.00;64.70;;;;;;5019270;28;20040;-74
2021/01/01 06:18:35;;;;;;;22.25;7.95;;;11.00;64.90;;;;;;5037764;28;20052;-75
2021/01/01 06:21:04;;;;;;;17.65;6.50;;;11.00;64.90;;;;;;5038070;28;20079;-76
2021/01/01 06:23:40;;;;;;;16.05;5.95;;;11.00;65.00;;;;;;5037798;28;20111;-74
2021/01/01 06:26:08;;;;;;;20.00;8.30;;;10.90;65.20;;;;;;5040922;28;20053;-74
2021/01/01 06:28:43;;;;;;;16.65;5.60;;;10.90;64.90;;;;;;5041742;28;20063;-74
2021/01/01 06:31:11;;;;;;;16.55;6.70;;;10.70;65.00;;;;;;5038174;28;20022;-75
2021/01/01 06:33:43;;;;;;;16.35;6.40;;;10.90;65.50;;;;;;5036594;28;20030;-74
2021/01/01 06:36:09;;;;;;;16.17;7.75;;;11.00;65.10;;;;;;5032246;28;20025;-75
2021/01/01 06:38:42;;;;;;;15.82;6.18;;;11.10;65.10;;;;;;5028864;28;20395;-74
2021/01/01 06:41:45;;;;;;;16.48;6.85;;;10.90;64.30;;;;;;5040856;28;20478;-75
2021/01/01 06:44:31;;;;;;;16.75;7.20;;;10.90;64.90;;;;;;5046085;28;20034;-76
2021/01/01 06:46:57;;;;;;;18.98;6.35;;;10.80;65.00;;;;;;5039034;28;20087;-75
2021/01/01 06:49:35;;;;;;;19.77;7.22;;;10.80;65.50;;;;;;5041533;28;20421;-75
2021/01/01 06:52:20;;;;;;;17.98;8.00;;;10.70;65.10;;;;;;5041768;28;20025;-75
2021/01/01 06:54:59;;;;;;;13.90;6.80;;;10.70;65.30;;;;;;5041871;28;20029;-75
2021/01/01 06:57:28;;;;;;;14.85;6.35;;;10.70;65.10;;;;;;5044223;28;20083;-75
2021/01/01 06:59:57;;;;;;;11.38;5.28;;;10.80;65.60;;;;;;5040149;28;20032;-76
2021/01/01 07:02:27;;;;;;;15.48;4.22;;;10.90;65.10;;;;;;5043051;28;20068;-74
2021/01/01 07:04:55;;;;;;;18.02;6.47;;;10.90;65.50;;;;;;5041589;28;20013;-75
2021/01/01 07:07:41;;;;;;;15.10;5.30;;;10.90;65.90;;;;;;5038572;28;20030;-74
2021/01/01 07:10:13;;;;;;;12.13;4.03;;;10.80;65.70;;;;;;5032965;28;20159;-74
2021/01/01 07:12:39;;;;;;;12.00;4.05;;;10.80;65.50;;;;;;5030804;28;20036;-76
2021/01/01 07:15:33;;;;;;;19.50;6.10;;;10.80;65.90;;;;;;5034830;28;20525;-73
2021/01/01 07:17:59;;;;;;;11.48;3.95;;;10.90;65.90;;;;;;5026178;28;20040;-74
2021/01/01 07:20:26;;;;;;;12.02;5.28;;;10.90;65.80;;;;;;5043204;28;20088;-74
2021/01/01 07:22:59;;;;;;;12.20;3.67;;;11.00;65.40;;;;;;5032862;28;20026;-75
2021/01/01 07:25:39;;;;;;;12.38;4.78;;;10.90;65.80;;;;;;5033051;28;20030;-75
2021/01/01 07:28:09;;;;;;;19.42;5.00;;;10.90;66.20;;;;;;5029358;28;20025;-75
2021/01/01 07:30:36;;;;;;;15.73;4.03;;;11.00;66.00;;;;;;5031871;28;20017;-74
2021/01/01 07:33:04;;;;;;;20.95;6.38;;;11.00;65.70;;;;;;5030185;28;20091;-74
2021/01/01 07:35:30;;;;;;;20.67;5.40;;;11.10;65.80;;;;;;5028000;28;20029;-74
2021/01/01 07:38:00;;;;;;;13.95;5.20;;;11.10;65.70;;;;;;5034909;28;20167;-74
2021/01/01 07:40:27;;;;;;;13.40;5.55;;;11.00;65.60;;;;;;5029170;28;20026;-76
2021/01/01 07:42:54;;;;;;;20.50;6.97;;;11.00;65.70;;;;;;5033705;28;20022;-75
2021/01/01 07:45:21;;;;;;;15.20;4.40;;;11.10;66.30;;;;;;5037040;28;20044;-75
2021/01/01 07:47:48;;;;;;;17.75;5.15;;;11.10;65.70;;;;;;5041992;28;20042;-75
2021/01/01 07:50:20;;;;;;;17.00;4.90;;;11.10;65.50;;;;;;5036153;28;20067;-76
2021/01/01 07:52:47;;;;;;;22.00;5.53;;;11.00;66.00;;;;;;5025322;28;20038;-76
2021/01/01 07:55:21;;;;;;;26.73;6.85;;;11.00;65.80;;;;;;5015563;28;20079;-74
2021/01/01 07:57:47;;;;;;;11.75;4.80;;;10.90;65.70;;;;;;5028990;28;20424;-75
2021/01/01 08:00:15;;;;;;;14.90;5.32;;;10.90;65.90;;;;;;5032397;28;20033;-74
2021/01/01 08:02:42;;;;;;;14.73;4.78;;;10.90;65.40;;;;;;5027886;28;20732;-76
2021/01/01 08:05:13;;;;;;;13.80;5.15;;;10.80;65.60;;;;;;5029824;28;20045;-76
2021/01/01 08:07:40;;;;;;;23.27;6.25;;;10.70;66.00;;;;;;5030314;28;20066;-75
2021/01/01 08:10:07;;;;;;;20.85;7.20;;;10.80;66.40;;;;;;5030565;28;20076;-75
2021/01/01 08:12:34;;;;;;;20.95;5.15;;;10.80;66.00;;;;;;5032040;28;20049;-75
2021/01/01 08:15:00;;;;;;;23.83;5.50;;;10.70;66.10;;;;;;5043840;28;20052;-76
2021/01/01 08:17:29;;;;;;;18.02;4.97;;;10.80;66.20;;;;;;5035646;28;20028;-75
2021/01/01 08:19:59;;;;;;;23.95;9.80;;;10.90;66.30;;;;;;5030992;28;20029;-75
2021/01/01 08:22:36;;;;;;;29.08;9.38;;;10.90;66.30;;;;;;5037442;28;20512;-75
2021/01/01 08:25:03;;;;;;;21.52;10.15;;;10.90;66.70;;;;;;5036313;28;20043;-78
2021/01/01 08:27:30;;;;;;;21.88;8.18;;;10.90;66.90;;;;;;5025790;28;20017;-77
2021/01/01 08:29:57;;;;;;;21.52;6.95;;;10.80;66.90;;;;;;5028132;28;20033;-78
2021/01/01 08:32:25;;;;;;;26.83;7.55;;;10.80;66.90;;;;;;5034244;28;20107;-78
2021/01/01 08:34:52;;;;;;;17.48;6.22;;;10.90;67.00;;;;;;5029317;28;20025;-78
2021/01/01 08:37:19;;;;;;;19.13;6.82;;;10.90;66.80;;;;;;5013318;28;20125;-78
2021/01/01 08:39:46;;;;;;;19.77;6.30;;;10.90;66.70;;;;;;5033594;28;20128;-78
2021/01/01 08:42:23;;;;;;;14.82;6.20;;;10.80;66.30;;;;;;5047315;28;20029;-77
2021/01/01 08:44:56;;;;;;;12.15;6.85;;;10.80;66.30;;;;;;5032903;28;20438;-77
2021/01/01 08:47:39;;;;;;;24.77;7.10;;;10.80;65.90;;;;;;5032441;28;20531;-77
2021/01/01 08:50:18;;;;;;;16.70;5.07;;;10.60;66.20;;;;;;5061308;28;20037;-78
2021/01/01 08:53:00;;;;;;;14.82;4.90;;;10.60;66.00;;;;;;5042609;28;20025;-75
2021/01/01 08:55:45;;;;;;;16.55;4.65;;;10.40;66.00;;;;;;5037668;28;20513;-76
2021/01/01 08:58:16;;;;;;;13.93;4.85;;;10.30;66.60;;;;;;5034440;28;20037;-76
2021/01/01 09:00:46;;;;;;;14.82;4.25;;;10.20;66.50;;;;;;5036260;28;20037;-76
2021/01/01 09:03:15;;;;;;;11.10;3.72;;;10.20;66.50;;;;;;5037258;28;20021;-76
2021/01/01 09:05:41;;;;;;;16.85;4.82;;;10.10;66.60;;;;;;5034488;28;20017;-76
2021/01/01 09:08:16;;;;;;;17.80;5.25;;;10.10;67.00;;;;;;5029279;28;20041;-75
2021/01/01 09:10:47;;;;;;;14.80;4.15;;;10.10;67.00;;;;;;5033575;28;20052;-76
2021/01/01 09:13:45;;;;;;;10.80;4.45;;;10.20;66.70;;;;;;5040583;28;20044;-77
2021/01/01 09:16:11;;;;;;;14.80;4.18;;;10.10;66.70;;;;;;5033889;28;20030;-75
2021/01/01 09:18:38;;;;;;;13.43;3.38;;;10.00;66.50;;;;;;5033031;28;20025;-77
2021/01/01 09:21:15;;;;;;;13.48;3.90;;;9.90;66.70;;;;;;5037322;28;20055;-76
2021/01/01 09:23:53;;;;;;;9.75;4.15;;;9.80;67.00;;;;;;5032157;28;20417;-76
2021/01/01 09:26:25;;;;;;;15.20;4.18;;;9.90;67.00;;;;;;5037004;28;20477;-76
2021/01/01 09:29:06;;;;;;;7.18;3.67;;;9.90;66.90;;;;;;5042836;28;20032;-76
2021/01/01 09:31:36;;;;;;;14.43;4.28;;;9.90;66.70;;;;;;5031742;28;20403;-76
2021/01/01 09:34:05;;;;;;;15.65;4.70;;;9.90;66.90;;;;;;5034542;28;20139;-76
2021/01/01 09:36:36;;;;;;;16.42;4.55;;;9.90;67.00;;;;;;5037082;28;20113;-76
2021/01/01 09:39:06;;;;;;;9.65;4.40;;;9.90;66.80;;;;;;5043634;28;20033;-77
2021/01/01 09:41:34;;;;;;;9.68;4.35;;;9.90;66.70;;;;;;5036474;28;20518;-76
2021/01/01 09:44:00;;;;;;;21.08;4.30;;;9.90;66.50;;;;;;5040158;28;20038;-76
2021/01/01 09:46:26;;;;;;;9.00;4.10;;;9.90;66.70;;;;;;5034286;28;20493;-76
2021/01/01 09:48:53;;;;;;;13.00;3.78;;;9.70;66.90;;;;;;5035935;28;20036;-76
2021/01/01 09:51:19;;;;;;;16.52;4.57;;;9.60;67.00;;;;;;5046308;28;20025;-75
2021/01/01 09:53:45;;;;;;;15.63;3.72;;;9.70;67.30;;;;;;5031360;28;20167;-76
2021/01/01 09:56:12;;;;;;;17.23;4.10;;;9.60;67.30;;;;;;5030187;28;20025;-79
2021/01/01 09:58:38;;;;;;;14.30;3.80;;;9.70;67.40;;;;;;5037284;28;20053;-76
2021/01/01 10:01:05;;;;;;;15.85;4.25;;;9.70;67.30;;;;;;5032488;28;20059;-77
2021/01/01 10:03:31;;;;;;;14.85;4.82;;;9.60;67.30;;;;;;5041018;28;20051;-76
2021/01/01 10:05:57;;;;;;;14.90;5.32;;;9.50;67.40;;;;;;5051672;28;20051;-76
2021/01/01 10:08:24;;;;;;;14.85;4.65;;;9.60;67.00;;;;;;5034519;28;20462;-77
2021/01/01 10:10:52;;;;;;;9.55;4.13;;;9.50;67.10;;;;;;5030488;28;20026;-77
2021/01/01 10:13:18;;;;;;;12.63;4.18;;;9.50;67.20;;;;;;5034852;28;20059;-75
2021/01/01 10:15:45;;;;;;;16.17;3.85;;;9.40;67.10;;;;;;5044384;28;20033;-75
2021/01/01 10:18:11;;;;;;;10.00;3.88;;;9.20;67.60;;;;;;5043387;28;20087;-76
2021/01/01 10:20:38;;;;;;;14.32;4.13;;;9.20;67.60;;;;;;5035253;28;20116;-75
2021/01/01 10:23:04;;;;;;;20.25;4.80;;;9.30;67.50;;;;;;5037804;28;20021;-77
2021/01/01 10:25:30;;;;;;;13.93;3.83;;;9.20;67.50;;;;;;5035425;28;20367;-76
2021/01/01 10:27:57;;;;;;;13.95;3.90;;;9.20;67.80;;;;;;5035281;28;20082;-76
2021/01/01 10:30:23;;;;;;;12.50;4.32;;;9.30;67.90;;;;;;5046258;28;20030;-76
2021/01/01 10:32:49;;;;;;;16.35;5.03;;;9.40;67.70;;;;;;5033608;28;20041;-76
2021/01/01 10:35:16;;;;;;;15.48;3.95;;;9.30;67.50;;;;;;5033904;28;20083;-76
2021/01/01 10:37:42;;;;;;;15.02;4.47;;;9.30;67.60;;;;;;5043576;28;20467;-76
2021/01/01 10:40:09;;;;;;;10.07;3.78;;;9.30;67.60;;;;;;5041055;28;20227;-76
2021/01/01 10:42:35;;;;;;;13.77;4.43;;;9.10;68.00;;;;;;5034952;28;20515;-75
2021/01/01 10:45:02;;;;;;;11.18;4.18;;;9.10;68.20;;;;;;5047349;28;20030;-75
2021/01/01 10:47:28;;;;;;;14.90;4.15;;;9.10;68.10;;;;;;5033837;28;20029;-75
2021/01/01 10:49:55;;;;;;;13.73;3.78;;;9.10;67.90;;;;;;5038231;28;20083;-76
2021/01/01 10:52:21;;;;;;;12.48;4.55;;;9.00;67.60;;;;;;5038652;28;20463;-75
2021/01/01 10:54:48;;;;;;;11.73;4.30;;;9.10;67.80;;;;;;5047906;28;20427;-75
2021/01/01 10:57:14;;;;;;;22.58;4.93;;;9.00;67.80;;;;;;5046659;28;20130;-76
2021/01/01 10:59:40;;;;;;;15.00;4.88;;;9.10;68.00;;;;;;5033736;28;20418;-75
2021/01/01 11:02:07;;;;;;;19.55;5.22;;;9.00;67.80;;;;;;5031606;28;20030;-78
2021/01/01 11:04:33;;;;;;;14.85;4.32;;;9.00;67.90;;;;;;5033472;28;20340;-77
2021/01/01 11:07:00;;;;;;;11.95;4.25;;;8.80;68.20;;;;;;5036938;28;20025;-75
2021/01/01 11:09:26;;;;;;;14.90;3.95;;;8.80;68.40;;;;;;5038181;28;20030;-75
2021/01/01 11:11:57;;;;;;;14.57;4.18;;;8.80;68.60;;;;;;5036906;28;20091;-75
2021/01/01 12:23:07;;;;;;;7.13;4.22;;;8.90;70.00;;;;;;5054439;28;20028;-77
2021/01/01 12:25:34;;;;;;;11.50;3.50;;;9.10;69.70;;;;;;5036197;28;20040;-75
2021/01/01 12:28:03;;;;;;;12.90;4.78;;;9.10;69.80;;;;;;5041777;28;20455;-75
2021/01/01 12:30:33;;;;;;;11.40;4.75;;;9.10;69.80;;;;;;5044894;28;20036;-75
2021/01/01 12:33:01;;;;;;;6.80;3.70;;;9.30;70.10;;;;;;5043599;28;20017;-75
2021/01/01 12:35:28;;;;;;;10.60;3.78;;;9.30;69.80;;;;;;5042191;28;20036;-75
2021/01/01 12:38:05;;;;;;;7.88;3.30;;;9.30;70.10;;;;;;5047496;28;20053;-75
2021/01/01 12:40:33;;;;;;;7.82;3.53;;;9.40;70.20;;;;;;5048495;28;20036;-75
2021/01/01 12:43:03;;;;;;;7.03;3.35;;;9.30;70.10;;;;;;5055635;28;20028;-75
2021/01/01 12:45:30;;;;;;;9.98;3.78;;;9.40;70.20;;;;;;5043308;28;20045;-74
2021/01/01 12:47:57;;;;;;;8.70;3.10;;;9.50;69.70;;;;;;5049795;28;20099;-75
2021/01/01 12:50:24;;;;;;;17.77;5.13;;;9.30;69.70;;;;;;5037408;28;20200;-74
2021/01/01 12:52:59;;;;;;;8.73;3.38;;;9.40;69.90;;;;;;5047388;28;20029;-75
2021/01/01 12:55:27;;;;;;;7.80;3.50;;;9.40;69.70;;;;;;5050403;28;20166;-74
2021/01/01 12:57:55;;;;;;;9.35;3.60;;;9.60;69.40;;;;;;5040559;28;20033;-75
2021/01/01 13:00:21;;;;;;;6.70;3.28;;;9.50;69.20;;;;;;5036437;28;20033;-74
2021/01/01 13:02:48;;;;;;;6.10;2.97;;;9.30;69.60;;;;;;5034867;28;20059;-75
2021/01/01 13:05:15;;;;;;;7.07;3.08;;;9.20;70.00;;;;;;5033191;28;20017;-75
2021/01/01 13:07:42;;;;;;;6.45;2.60;;;9.20;70.10;;;;;;5042376;28;20398;-76
2021/01/01 13:10:10;;;;;;;6.80;3.13;;;9.10;70.00;;;;;;5033847;28;20030;-75
2021/01/01 13:12:39;;;;;;;7.00;4.05;;;9.10;69.80;;;;;;5049227;28;20035;-77
2021/01/01 13:15:06;;;;;;;10.07;3.40;;;9.20;69.30;;;;;;5042950;28;20086;-75
2021/01/01 13:17:33;;;;;;;9.73;3.70;;;9.10;69.40;;;;;;5049996;28;20410;-75
2021/01/01 13:20:00;;;;;;;7.43;3.20;;;9.00;69.40;;;;;;5043507;28;20029;-75
2021/01/01 13:22:26;;;;;;;11.82;2.95;;;8.90;70.00;;;;;;5037042;28;20079;-75
2021/01/01 13:24:52;;;;;;;4.88;3.00;;;8.80;69.20;;;;;;5051306;28;20024;-75
2021/01/01 13:27:19;;;;;;;8.70;3.10;;;8.80;69.10;;;;;;5034558;28;20104;-75
2021/01/01 13:29:46;;;;;;;7.78;3.75;;;8.70;68.90;;;;;;5033922;28;20033;-75
2021/01/01 13:32:12;;;;;;;9.48;3.85;;;8.70;69.00;;;;;;5036240;28;20116;-75
2021/01/01 13:34:39;;;;;;;12.88;3.42;;;8.70;69.00;;;;;;5041607;28;20036;-75
2021/01/01 13:37:05;;;;;;;15.57;5.05;;;8.70;68.90;;;;;;5043768;28;20470;-75
2021/01/01 13:39:31;;;;;;;8.60;3.95;;;8.70;68.60;;;;;;5037419;28;20040;-75
2021/01/01 13:41:58;;;;;;;12.80;3.15;;;8.60;68.60;;;;;;5033568;28;20024;-74
2021/01/01 13:44:24;;;;;;;10.73;3.88;;;8.50;68.90;;;;;;5034459;28;20096;-75
2021/01/01 13:46:50;;;;;;;11.65;3.47;;;8.50;68.80;;;;;;5033877;28;20022;-75
2021/01/01 13:49:17;;;;;;;10.05;3.38;;;8.50;68.90;;;;;;5033701;28;20362;-77
2021/01/01 13:51:43;;;;;;;11.63;3.50;;;8.50;68.80;;;;;;5034738;28;20494;-75
2021/01/01 13:54:10;;;;;;;8.93;3.67;;;8.40;68.80;;;;;;5032239;28;20029;-74
2021/01/01 13:56:38;;;;;;;13.75;3.42;;;8.40;68.90;;;;;;5035237;28;20037;-75